Terminal Aerodrome Forecast
Issued by NWS Springfield, MO

Home | Current Version | Previous Version | Text Only | Print | Product List | Glossary On
Versions: 1 2 3 4 5 6 7 8 9 10 11 12 13 14 15 16 17 18 19 20 21 22
000
FTUS43 KSGF 011500 AAA
TAFSGF
TAF AMD
KSGF 011507Z 0115/0212 VRB04KT 2SM BR OVC003
      TEMPO 0115/0117 1SM -FZDZ
     FM011700 34005KT P6SM OVC007
     FM012100 33006KT P6SM OVC015
     FM020400 03005KT 4SM BR OVC025=

USA.gov is the U.S. government's official web portal to all federal, state and local government web resources and services.